Airfield :
LOGIN :

Register | Disclaimer

   EN    FR    IT 

 










Legend :    VFR   Marginal VFR   IFR   Intensive IFR   Very Intensive IFR
Visi :
Ceiling :
>= 8 km
>= 3000ft
5 to 8 km
1000 to 3000 ft
1500m to 5 km
500 to 1000 ft
800 to 1500m
200 to 500 ft
< 800m
< 200 ft
Symbols :   Thunderstorms  Fog  Heavy snow  Heavy precipitations  Wind > 20 kt
SIGMETs :     Misc.  Thunderstorms  Icing  Turbulence  Mountain Waves  Volcanic Ashes







- Airport Elevation : 219 ft
- IATA code : DNR
- Download approach charts


LFRD - Dinard

CURRENT METAR :
  • 200130Z AUTO 18005KT CAVOK 12/10 Q1023 TEMPO 0500 BCFG

EXPIRED METARs :
  • 200100Z AUTO 18004KT CAVOK 13/10 Q1023 NOSIG
  • 200030Z AUTO 18004KT CAVOK 13/10 Q1023 NOSIG
  • 200000Z AUTO 18003KT 9999 FEW034 OVC049 13/10 Q1023 NOSIG
  • 192330Z AUTO 17003KT 9999 BKN035 OVC041 13/10 Q1023 NOSIG

TAF TAF LFRD
Valid from the 20 at 00:00 until the 21 at 00:00 UTC


192300Z 2000/2024 18005KT 9999 SCT040
PROB30
TEMPO 2003/2007 0500 BCFG
BECMG 2007/2009 20010KT
BECMG 2018/2020 19005KT
ATIS : +33 2 99 16 81 50
No reported NOTAMs for that airfield.



MET'MAP, your aeronautical weather chart ! - Copyright ORBIFLY December 2007 - Disclaimer

ORBIFLY MET'MAP TEAM :

Programming & Development : Alexandra Zaïnal
Concept & Development : Baudouin d'Aumeries
Co-Development & Prog : Marc-Olivier Méhu
Technical & hardware support : Manuel Goepfert

Contact : metmap@orbifly.com




SOURCES & CREDITS :

   NOAA